createdAt,value
2018-12-24T00:00:07.523Z,101006.34
2018-12-24T00:02:36.988Z,101006.81
2018-12-24T00:05:06.463Z,101009.31
2018-12-24T00:07:35.869Z,101022.03
2018-12-24T00:10:05.746Z,101022.03
2018-12-24T00:12:35.504Z,101025.62
2018-12-24T00:15:05.398Z,101029.44
2018-12-24T00:17:34.872Z,101033.84
2018-12-24T00:20:05.426Z,101038.38
2018-12-24T00:22:34.904Z,101044.47
2018-12-24T00:25:04.366Z,101044.47
2018-12-24T00:27:33.778Z,101048.91
2018-12-24T00:30:03.233Z,101056.86
2018-12-24T00:32:32.642Z,101060.08
2018-12-24T00:35:02.537Z,101067.02
2018-12-24T00:37:32.005Z,101072.05
2018-12-24T00:40:01.395Z,101079.05
2018-12-24T00:42:30.831Z,101083.13
2018-12-24T00:45:00.254Z,101093.14
2018-12-24T00:47:29.682Z,101100.88
2018-12-24T00:49:59.082Z,101117.84
2018-12-24T00:52:28.758Z,101125.68
2018-12-24T00:54:58.163Z,101141.27
2018-12-24T00:57:27.635Z,101145.02
2018-12-24T00:59:57.016Z,101145.14
2018-12-24T01:02:26.580Z,101155.31
2018-12-24T01:04:55.972Z,101163.97
2018-12-24T01:07:25.376Z,101169.05
2018-12-24T01:09:58.036Z,101178.27
2018-12-24T01:12:27.578Z,101179.70
2018-12-24T01:14:57.244Z,101206.93
2018-12-24T01:17:26.666Z,101201.56
2018-12-24T01:19:56.056Z,101205.44
2018-12-24T01:22:25.539Z,101224.31
2018-12-24T01:24:54.959Z,101227.42
2018-12-24T01:27:24.355Z,101232.70
2018-12-24T01:29:53.772Z,101240.10
2018-12-24T01:32:23.264Z,101247.26
2018-12-24T01:34:52.676Z,101261.73
2018-12-24T01:37:22.072Z,101257.42
2018-12-24T01:39:51.497Z,101271.89
2018-12-24T01:42:20.889Z,101276.41
2018-12-24T01:44:50.299Z,101295.00
2018-12-24T01:47:19.696Z,101296.68
2018-12-24T01:49:49.120Z,101313.48
2018-12-24T01:52:18.509Z,101324.41
2018-12-24T01:54:47.936Z,101332.39
2018-12-24T01:57:17.334Z,101331.81
2018-12-24T01:59:46.755Z,101326.64
2018-12-24T02:02:16.172Z,101335.97
2018-12-24T02:04:45.605Z,101345.05
2018-12-24T02:07:15.016Z,101342.99
2018-12-24T02:09:44.451Z,101345.92
2018-12-24T02:12:13.846Z,101343.48
2018-12-24T02:14:43.272Z,101356.64
2018-12-24T02:17:12.689Z,101355.70
2018-12-24T02:19:42.122Z,101369.58
2018-12-24T02:22:12.940Z,101375.98
2018-12-24T02:24:42.620Z,101382.94
2018-12-24T02:27:12.025Z,101383.49
2018-12-24T02:29:41.418Z,101393.63
2018-12-24T02:32:10.854Z,101395.52
2018-12-24T02:34:40.258Z,101399.75
2018-12-24T02:37:09.679Z,101410.44
2018-12-24T02:39:39.086Z,101405.55
2018-12-24T02:42:08.498Z,101408.77
2018-12-24T02:44:37.970Z,101416.75
2018-12-24T02:47:07.663Z,101421.62
2018-12-24T02:49:37.413Z,101423.87
2018-12-24T02:52:06.851Z,101422.88
2018-12-24T02:54:36.256Z,101424.11
2018-12-24T02:57:06.109Z,101436.75
2018-12-24T02:59:35.493Z,101438.73
2018-12-24T03:02:04.925Z,101438.22
2018-12-24T03:04:34.314Z,101453.40
2018-12-24T03:07:03.814Z,101461.72
2018-12-24T03:09:33.242Z,101463.52
2018-12-24T03:12:02.666Z,101463.94
2018-12-24T03:14:32.086Z,101465.69
2018-12-24T03:17:01.514Z,101478.55
2018-12-24T03:19:30.937Z,101472.86
2018-12-24T03:22:00.339Z,101486.36
2018-12-24T03:24:29.763Z,101486.30
2018-12-24T03:26:59.154Z,101491.52
2018-12-24T03:29:28.568Z,101494.14
2018-12-24T03:31:58.037Z,101500.88
2018-12-24T03:34:27.440Z,101504.00
2018-12-24T03:36:57.041Z,101511.22
2018-12-24T03:39:26.550Z,101516.58
2018-12-24T03:41:55.980Z,101510.87
2018-12-24T03:44:25.376Z,101506.76
2018-12-24T03:46:54.802Z,101520.38
2018-12-24T03:49:24.239Z,101516.13
2018-12-24T03:51:53.654Z,101521.31
2018-12-24T03:54:23.062Z,101529.52
2018-12-24T03:56:52.497Z,101529.61
2018-12-24T03:59:21.918Z,101534.46
2018-12-24T04:01:51.327Z,101538.14
2018-12-24T04:04:20.756Z,101549.04
2018-12-24T04:06:50.325Z,101551.45
2018-12-24T04:09:20.384Z,101550.44
2018-12-24T04:11:49.875Z,101560.20
2018-12-24T04:14:19.286Z,101568.09
2018-12-24T04:16:48.704Z,101579.44
2018-12-24T04:19:18.101Z,101582.37
2018-12-24T04:21:47.546Z,101579.41
2018-12-24T04:24:16.928Z,101585.08
2018-12-24T04:26:46.614Z,101593.69
2018-12-24T04:29:16.135Z,101594.25
2018-12-24T04:31:45.724Z,101603.05
2018-12-24T04:34:15.136Z,101621.19
2018-12-24T04:36:44.665Z,101626.38
2018-12-24T04:39:14.087Z,101627.44
2018-12-24T04:41:43.487Z,101630.81
2018-12-24T04:44:13.003Z,101638.82
2018-12-24T04:46:42.472Z,101637.24
2018-12-24T04:49:11.880Z,101636.23
2018-12-24T04:51:41.347Z,101644.84
2018-12-24T04:54:10.773Z,101640.66
2018-12-24T04:56:40.166Z,101655.40
2018-12-24T04:59:09.575Z,101658.75
2018-12-24T05:01:38.981Z,101663.17
2018-12-24T05:04:08.480Z,101668.07
2018-12-24T05:06:37.913Z,101677.23
2018-12-24T05:09:07.812Z,101680.73
2018-12-24T05:11:37.240Z,101696.90
2018-12-24T05:14:06.666Z,101705.33
2018-12-24T05:16:36.053Z,101711.49
2018-12-24T05:19:05.542Z,101715.24
2018-12-24T05:21:34.936Z,101722.43
2018-12-24T05:24:04.341Z,101726.14
2018-12-24T05:26:33.905Z,101734.38
2018-12-24T05:29:03.293Z,101743.14
2018-12-24T05:31:32.716Z,101756.13
2018-12-24T05:34:02.126Z,101757.31
2018-12-24T05:36:31.538Z,101768.45
2018-12-24T05:39:01.015Z,101771.63
2018-12-24T05:41:30.420Z,101780.41
2018-12-24T05:43:59.884Z,101783.53
2018-12-24T05:46:29.313Z,101789.01
2018-12-24T05:48:58.734Z,101787.86
2018-12-24T05:51:28.152Z,101797.84
2018-12-24T05:53:57.540Z,101798.83
2018-12-24T05:56:26.982Z,101798.14
2018-12-24T05:58:56.414Z,101809.61
2018-12-24T06:01:25.826Z,101807.42
2018-12-24T06:03:55.239Z,101813.54
2018-12-24T06:06:24.640Z,101823.45
2018-12-24T06:08:54.435Z,101827.95
2018-12-24T06:11:23.833Z,101834.53
2018-12-24T06:13:57.925Z,101844.36
2018-12-24T06:16:24.374Z,101846.99
2018-12-24T06:18:53.770Z,101855.41
2018-12-24T06:21:23.205Z,101858.41
2018-12-24T06:23:52.641Z,101865.92
2018-12-24T06:26:22.212Z,101871.44
2018-12-24T06:28:51.642Z,101877.70
2018-12-24T06:31:21.054Z,101883.02
2018-12-24T06:33:50.484Z,101885.11
2018-12-24T06:36:19.878Z,101885.83
2018-12-24T06:38:49.306Z,101898.67
2018-12-24T06:41:18.708Z,101905.02
2018-12-24T06:43:48.146Z,101911.28
2018-12-24T06:46:17.575Z,101919.31
2018-12-24T06:48:46.996Z,101932.09
2018-12-24T06:51:16.389Z,101927.20
2018-12-24T06:53:45.816Z,101934.65
2018-12-24T06:56:15.245Z,101936.41
2018-12-24T06:58:44.673Z,101939.61
2018-12-24T07:01:14.106Z,101942.55
2018-12-24T07:03:43.600Z,101946.05
2018-12-24T07:06:13.321Z,101962.21
2018-12-24T07:08:42.863Z,101959.34
2018-12-24T07:11:12.237Z,101963.84
2018-12-24T07:13:41.661Z,101962.19
2018-12-24T07:16:11.085Z,101977.52
2018-12-24T07:18:40.479Z,101977.52
2018-12-24T07:21:09.948Z,101981.78
2018-12-24T07:23:39.349Z,101983.79
2018-12-24T07:26:09.089Z,101993.55
2018-12-24T07:28:38.949Z,101994.77
2018-12-24T07:31:08.370Z,102001.06
2018-12-24T07:33:37.782Z,102007.33
2018-12-24T07:36:07.194Z,102008.03
2018-12-24T07:38:36.873Z,102006.70
2018-12-24T07:41:06.295Z,102017.30
2018-12-24T07:43:35.711Z,102019.80
2018-12-24T07:46:05.147Z,102027.28
2018-12-24T07:48:34.544Z,102024.58
2018-12-24T07:51:03.974Z,102034.41
2018-12-24T07:53:35.240Z,102040.38
2018-12-24T07:56:04.559Z,102042.39
2018-12-24T07:58:34.006Z,102044.57
2018-12-24T08:01:03.689Z,102047.50
2018-12-24T08:03:33.098Z,102045.94
2018-12-24T08:06:02.628Z,102050.15
2018-12-24T08:08:32.057Z,102052.94
2018-12-24T08:11:01.457Z,102052.24
2018-12-24T08:13:30.873Z,102059.81
2018-12-24T08:16:00.270Z,102063.92
2018-12-24T08:18:29.692Z,102070.36
2018-12-24T08:20:59.269Z,102077.85
2018-12-24T08:23:28.771Z,102074.92
2018-12-24T08:25:58.166Z,102078.55
2018-12-24T08:28:27.594Z,102088.23
2018-12-24T08:30:56.987Z,102088.08
2018-12-24T08:33:26.415Z,102092.19
2018-12-24T08:35:55.819Z,102091.73
2018-12-24T08:38:25.253Z,102096.59
2018-12-24T08:40:54.681Z,102111.09
2018-12-24T08:43:24.119Z,102118.04
2018-12-24T08:45:53.538Z,102120.82
2018-12-24T08:48:22.936Z,102128.48
2018-12-24T08:50:52.520Z,102138.25
2018-12-24T08:53:21.972Z,102135.70
2018-12-24T08:55:51.384Z,102145.06
2018-12-24T08:58:20.810Z,102152.89
2018-12-24T09:00:50.222Z,102164.64
2018-12-24T09:03:19.635Z,102166.66
2018-12-24T09:05:49.034Z,102172.63
2018-12-24T09:08:18.453Z,102182.01
2018-12-24T09:10:47.876Z,102178.21
2018-12-24T09:13:17.455Z,102189.77
2018-12-24T09:15:46.877Z,102202.61
2018-12-24T09:18:16.287Z,102206.41
2018-12-24T09:20:52.664Z,102220.44
2018-12-24T09:23:16.831Z,102234.08
2018-12-24T09:25:46.250Z,102234.59
2018-12-24T09:28:15.699Z,102239.86
2018-12-24T09:30:46.927Z,102241.72
2018-12-24T09:33:16.339Z,102239.70
2018-12-24T09:35:45.749Z,102256.85
2018-12-24T09:38:15.136Z,102263.88
2018-12-24T09:40:44.556Z,102263.05
2018-12-24T09:43:13.939Z,102264.45
2018-12-24T09:45:43.413Z,102266.70
2018-12-24T09:48:12.886Z,102283.38
2018-12-24T09:50:42.495Z,102277.79
2018-12-24T09:53:11.907Z,102282.19
2018-12-24T09:55:41.322Z,102282.19
2018-12-24T09:58:10.726Z,102292.56
2018-12-24T10:00:40.233Z,102306.11
2018-12-24T10:03:09.910Z,102309.74
2018-12-24T10:05:39.388Z,102325.77
2018-12-24T10:08:12.488Z,102321.37
2018-12-24T10:10:41.884Z,102324.01
2018-12-24T10:13:11.288Z,102330.42
2018-12-24T10:15:41.125Z,102334.14
2018-12-24T10:18:10.546Z,102341.67
2018-12-24T10:20:39.939Z,102343.38
2018-12-24T10:23:09.351Z,102341.55
2018-12-24T10:25:38.733Z,102343.91
2018-12-24T10:28:08.141Z,102342.16
2018-12-24T10:30:37.561Z,102346.38
2018-12-24T10:33:48.274Z,102298.34
2018-12-24T10:36:17.583Z,102351.54
2018-12-24T10:38:46.858Z,102308.11
2018-12-24T10:41:16.386Z,102356.80
2018-12-24T10:43:45.686Z,102363.11
2018-12-24T10:46:15.004Z,102364.72
2018-12-24T10:48:46.510Z,102361.75
2018-12-24T10:51:15.336Z,102363.62
2018-12-24T10:53:44.584Z,102351.87
2018-12-24T10:56:13.895Z,102360.09
2018-12-24T10:58:43.186Z,102361.85
2018-12-24T11:01:12.486Z,102367.45
2018-12-24T11:03:41.754Z,102352.58
2018-12-24T11:06:11.069Z,102345.03
2018-12-24T11:08:40.339Z,102354.13
2018-12-24T11:11:09.630Z,102356.52
2018-12-24T11:13:39.702Z,102347.59
2018-12-24T11:16:09.194Z,102351.47
2018-12-24T11:18:38.541Z,102351.47
2018-12-24T11:21:07.851Z,102342.53
2018-12-24T11:23:37.232Z,102348.77
2018-12-24T11:26:06.484Z,102348.77
2018-12-24T11:28:35.792Z,102345.98
2018-12-24T11:31:05.101Z,102335.85
2018-12-24T11:33:34.413Z,102338.08
2018-12-24T11:36:03.699Z,102340.05
2018-12-24T11:38:32.994Z,102348.91
2018-12-24T11:41:02.285Z,102342.30
2018-12-24T11:43:31.595Z,102342.95
2018-12-24T11:46:00.879Z,102333.23
2018-12-24T11:48:30.196Z,102341.18
2018-12-24T11:50:59.482Z,102351.48
2018-12-24T11:53:28.795Z,102352.77
2018-12-24T11:55:58.077Z,102365.55
2018-12-24T11:58:27.393Z,102363.47
2018-12-24T12:00:56.746Z,102366.12
2018-12-24T12:03:26.061Z,102368.39
2018-12-24T12:05:55.393Z,102363.45
2018-12-24T12:08:25.160Z,102360.30
2018-12-24T12:10:54.443Z,102358.10
2018-12-24T12:13:23.821Z,102354.56
2018-12-24T12:15:53.113Z,102357.08
2018-12-24T12:18:22.415Z,102350.71
2018-12-24T12:20:52.681Z,102358.72
2018-12-24T12:23:22.339Z,102363.52
2018-12-24T12:25:51.995Z,102366.47
2018-12-24T12:28:21.268Z,102360.02
2018-12-24T12:30:50.579Z,102363.03
2018-12-24T12:33:19.861Z,102367.05
2018-12-24T12:35:49.183Z,102367.88
2018-12-24T12:38:18.473Z,102369.19
2018-12-24T12:40:47.779Z,102369.99
2018-12-24T12:43:17.065Z,102371.98
2018-12-24T12:45:51.138Z,102361.87
2018-12-24T12:48:17.342Z,102379.63
2018-12-24T12:50:46.674Z,102397.69
2018-12-24T12:53:15.956Z,102393.31
2018-12-24T12:55:45.253Z,102397.74
2018-12-24T12:58:14.542Z,102404.25
2018-12-24T13:00:43.858Z,102405.02
2018-12-24T13:03:13.157Z,102422.73
2018-12-24T13:05:42.623Z,102421.68
2018-12-24T13:08:11.996Z,102427.39
2018-12-24T13:10:41.295Z,102430.70
2018-12-24T13:13:10.574Z,102442.38
2018-12-24T13:15:39.890Z,102437.09
2018-12-24T13:18:09.185Z,102453.28
2018-12-24T13:20:38.463Z,102456.16
2018-12-24T13:23:07.870Z,102456.16
2018-12-24T13:25:37.204Z,102458.70
2018-12-24T13:28:06.535Z,102460.05
2018-12-24T13:30:35.804Z,102462.55
2018-12-24T13:33:05.162Z,102472.08
2018-12-24T13:35:34.455Z,102472.08
2018-12-24T13:38:03.776Z,102475.73
2018-12-24T13:40:33.146Z,102485.55
2018-12-24T13:43:02.517Z,102485.55
2018-12-24T13:45:31.942Z,102481.30
2018-12-24T13:48:01.259Z,102479.83
2018-12-24T13:50:30.546Z,102480.61
2018-12-24T13:52:59.859Z,102483.63
2018-12-24T13:55:29.177Z,102484.84
2018-12-24T13:57:58.500Z,102494.56
2018-12-24T14:00:27.779Z,102494.83
2018-12-24T14:02:57.064Z,102499.70
2018-12-24T14:05:26.352Z,102499.12
2018-12-24T14:07:55.656Z,102497.31
2018-12-24T14:10:24.934Z,102503.44
2018-12-24T14:12:54.232Z,102518.09
2018-12-24T14:15:23.520Z,102515.08
2018-12-24T14:17:52.809Z,102525.27
2018-12-24T14:20:22.227Z,102525.14
2018-12-24T14:22:51.505Z,102545.91
2018-12-24T14:25:20.814Z,102549.95
2018-12-24T14:27:50.094Z,102546.42
2018-12-24T14:30:19.397Z,102546.42
2018-12-24T14:32:48.787Z,102562.37
2018-12-24T14:35:18.071Z,102564.59
2018-12-24T14:37:47.384Z,102564.59
2018-12-24T14:40:16.682Z,102578.63
2018-12-24T14:42:45.956Z,102578.63
2018-12-24T14:45:15.273Z,102578.69
2018-12-24T14:47:44.964Z,102581.43
2018-12-24T14:50:14.587Z,102585.72
2018-12-24T14:52:43.850Z,102583.08
2018-12-24T14:55:13.134Z,102589.41
2018-12-24T14:57:42.443Z,102599.21
2018-12-24T15:00:12.119Z,102611.30
2018-12-24T15:02:41.395Z,102612.70
2018-12-24T15:05:10.695Z,102625.92
2018-12-24T15:07:40.040Z,102633.45
2018-12-24T15:10:09.645Z,102632.81
2018-12-24T15:12:38.954Z,102636.87
2018-12-24T15:15:08.248Z,102652.20
2018-12-24T15:17:37.529Z,102658.41
2018-12-24T15:20:07.821Z,102664.56
2018-12-24T15:22:37.128Z,102650.50
2018-12-24T15:25:06.398Z,102656.02
2018-12-24T15:27:35.813Z,102659.53
2018-12-24T15:30:06.253Z,102669.22
2018-12-24T15:32:35.547Z,102669.22
2018-12-24T15:35:05.126Z,102668.14
2018-12-24T15:37:34.449Z,102671.94
2018-12-24T15:40:04.196Z,102674.45
2018-12-24T15:42:33.514Z,102679.60
2018-12-24T15:45:02.811Z,102691.73
2018-12-24T15:47:32.172Z,102687.62
2018-12-24T15:50:01.445Z,102694.42
2018-12-24T15:52:30.762Z,102688.98
2018-12-24T15:55:00.024Z,102691.75
2018-12-24T15:57:29.328Z,102691.48
2018-12-24T15:59:58.637Z,102701.23
2018-12-24T16:02:27.917Z,102697.92
2018-12-24T16:04:57.220Z,102695.83
2018-12-24T16:07:26.545Z,102694.08
2018-12-24T16:09:55.864Z,102691.25
2018-12-24T16:12:25.187Z,102696.53
2018-12-24T16:14:54.500Z,102695.17
2018-12-24T16:17:23.782Z,102695.50
2018-12-24T16:19:53.086Z,102693.45
2018-12-24T16:22:22.373Z,102686.12
2018-12-24T16:24:51.659Z,102688.59
2018-12-24T16:27:20.935Z,102689.42
2018-12-24T16:29:50.257Z,102689.41
2018-12-24T16:32:19.614Z,102695.07
2018-12-24T16:34:48.906Z,102697.58
2018-12-24T16:37:18.186Z,102702.62
2018-12-24T16:39:47.860Z,102692.63
2018-12-24T16:42:17.085Z,102695.11
2018-12-24T16:44:46.514Z,102693.09
2018-12-24T16:47:15.821Z,102693.41
2018-12-24T16:49:45.104Z,102698.02
2018-12-24T16:52:14.679Z,102692.94
2018-12-24T16:54:44.134Z,102696.92
2018-12-24T16:57:13.435Z,102697.16
2018-12-24T16:59:42.734Z,102688.52
2018-12-24T17:02:14.888Z,102693.09
2018-12-24T17:04:44.160Z,102701.48
2018-12-24T17:07:13.453Z,102695.69
2018-12-24T17:09:42.768Z,102701.43
2018-12-24T17:12:14.804Z,102706.73
2018-12-24T17:14:44.091Z,102704.87
2018-12-24T17:17:13.387Z,102706.02
2018-12-24T17:19:42.675Z,102713.97
2018-12-24T17:22:11.986Z,102716.80
2018-12-24T17:24:41.295Z,102721.82
2018-12-24T17:27:10.593Z,102722.06
2018-12-24T17:29:40.242Z,102728.92
2018-12-24T17:32:09.558Z,102726.80
2018-12-24T17:34:38.834Z,102714.66
2018-12-24T17:37:08.132Z,102705.91
2018-12-24T17:39:37.463Z,102703.91
2018-12-24T17:42:06.739Z,102715.34
2018-12-24T17:44:36.039Z,102711.25
2018-12-24T17:47:05.356Z,102721.91
2018-12-24T17:49:34.658Z,102727.52
2018-12-24T17:52:03.972Z,102740.09
2018-12-24T17:54:33.287Z,102757.50
2018-12-24T17:57:02.565Z,102776.28
2018-12-24T17:59:31.867Z,102764.22
2018-12-24T18:02:01.523Z,102773.09
2018-12-24T18:04:30.830Z,102780.72
2018-12-24T18:07:00.108Z,102766.34
2018-12-24T18:09:29.429Z,102784.17
2018-12-24T18:11:58.699Z,102783.16
2018-12-24T18:14:28.026Z,102788.07
2018-12-24T18:16:57.309Z,102795.45
2018-12-24T18:19:26.627Z,102793.73
2018-12-24T18:21:55.975Z,102793.36
2018-12-24T18:24:25.282Z,102799.47
2018-12-24T18:26:54.579Z,102800.84
2018-12-24T18:29:23.898Z,102804.05
2018-12-24T18:31:53.206Z,102812.05
2018-12-24T18:34:22.505Z,102826.80
2018-12-24T18:36:51.787Z,102821.83
2018-12-24T18:39:21.098Z,102815.67
2018-12-24T18:41:50.400Z,102829.08
2018-12-24T18:44:19.714Z,102843.82
2018-12-24T18:46:49.027Z,102849.88
2018-12-24T18:49:18.337Z,102850.02
2018-12-24T18:51:47.667Z,102865.48
2018-12-24T18:54:16.961Z,102866.23
2018-12-24T18:56:46.629Z,102863.75
2018-12-24T18:59:16.109Z,102898.83
2018-12-24T19:01:45.408Z,102908.39
2018-12-24T19:04:14.728Z,102900.92
2018-12-24T19:06:44.171Z,102904.88
2018-12-24T19:09:13.448Z,102898.60
2018-12-24T19:11:42.774Z,102910.91
2018-12-24T19:14:12.078Z,102912.97
2018-12-24T19:16:41.407Z,102915.61
2018-12-24T19:19:10.696Z,102919.70
2018-12-24T19:21:43.941Z,102915.73
2018-12-24T19:24:11.014Z,102914.09
2018-12-24T19:26:40.329Z,102910.07
2018-12-24T19:29:09.628Z,102913.90
2018-12-24T19:31:38.948Z,102913.45
2018-12-24T19:34:08.242Z,102914.22
2018-12-24T19:36:37.552Z,102909.90
2018-12-24T19:39:07.683Z,102916.02
2018-12-24T19:41:37.000Z,102914.17
2018-12-24T19:44:06.317Z,102924.95
2018-12-24T19:46:35.633Z,102932.77
2018-12-24T19:49:04.990Z,102939.00
2018-12-24T19:51:34.293Z,102944.67
2018-12-24T19:54:03.825Z,102942.52
2018-12-24T19:56:33.122Z,102948.03
2018-12-24T19:59:02.692Z,102946.77
2018-12-24T20:01:32.061Z,102946.98
2018-12-24T20:04:01.389Z,102943.47
2018-12-24T20:06:30.782Z,102946.67
2018-12-24T20:09:00.103Z,102948.16
2018-12-24T20:11:29.416Z,102952.91
2018-12-24T20:13:58.765Z,102948.95
2018-12-24T20:16:28.071Z,102948.90
2018-12-24T20:18:57.678Z,102940.55
2018-12-24T20:21:26.971Z,102934.11
2018-12-24T20:23:56.300Z,102931.33
2018-12-24T20:26:25.594Z,102932.59
2018-12-24T20:28:54.924Z,102934.09
2018-12-24T20:31:24.231Z,102932.02
2018-12-24T20:33:53.565Z,102932.09
2018-12-24T20:36:23.052Z,102935.00
2018-12-24T20:38:52.337Z,102939.61
2018-12-24T20:41:21.664Z,102943.16
2018-12-24T20:43:50.967Z,102945.95
2018-12-24T20:46:20.284Z,102942.87
2018-12-24T20:48:49.565Z,102945.73
2018-12-24T20:51:18.896Z,102947.72
2018-12-24T20:53:48.239Z,102942.73
2018-12-24T20:56:17.573Z,102946.39
2018-12-24T20:58:46.864Z,102942.34
2018-12-24T21:01:16.176Z,102953.03
2018-12-24T21:03:45.510Z,102956.75
2018-12-24T21:06:14.827Z,102960.55
2018-12-24T21:08:44.123Z,102959.12
2018-12-24T21:11:13.450Z,102967.75
2018-12-24T21:13:42.750Z,102972.95
2018-12-24T21:16:12.279Z,102976.61
2018-12-24T21:18:41.762Z,102967.23
2018-12-24T21:21:11.551Z,102973.45
2018-12-24T21:23:40.876Z,102964.36
2018-12-24T21:26:10.686Z,102965.41
2018-12-24T21:28:40.015Z,102958.72
2018-12-24T21:31:09.378Z,102966.50
2018-12-24T21:33:38.679Z,102955.07
2018-12-24T21:36:08.077Z,102956.45
2018-12-24T21:38:37.303Z,102959.46
2018-12-24T21:41:06.597Z,102956.00
2018-12-24T21:43:35.912Z,102954.14
2018-12-24T21:46:05.224Z,102952.66
2018-12-24T21:48:34.537Z,102949.75
2018-12-24T21:51:03.846Z,102948.95
2018-12-24T21:53:33.185Z,102945.67
2018-12-24T21:56:02.489Z,102944.97
2018-12-24T21:58:31.825Z,102946.88
2018-12-24T22:01:01.152Z,102950.79
2018-12-24T22:03:30.478Z,102944.55
2018-12-24T22:05:59.805Z,102942.36
2018-12-24T22:08:29.117Z,102941.55
2018-12-24T22:10:58.441Z,102944.95
2018-12-24T22:13:28.092Z,102947.05
2018-12-24T22:15:57.430Z,102955.22
2018-12-24T22:18:32.234Z,102953.14
2018-12-24T22:20:58.267Z,102951.09
2018-12-24T22:23:27.572Z,102945.58
2018-12-24T22:25:56.896Z,102946.97
2018-12-24T22:28:26.195Z,102934.06
2018-12-24T22:30:55.520Z,102940.42
2018-12-24T22:33:26.928Z,102940.14
2018-12-24T22:35:55.873Z,102941.84
2018-12-24T22:38:25.318Z,102938.48
2018-12-24T22:40:54.647Z,102945.03
2018-12-24T22:43:23.958Z,102943.84
2018-12-24T22:45:53.300Z,102945.80
2018-12-24T22:48:22.599Z,102950.95
2018-12-24T22:50:51.927Z,102953.18
2018-12-24T22:53:21.245Z,102958.58
2018-12-24T22:55:50.556Z,102954.22
2018-12-24T22:58:19.892Z,102953.10
2018-12-24T23:00:50.028Z,102955.50
2018-12-24T23:03:19.355Z,102961.38
2018-12-24T23:05:48.666Z,102965.50
2018-12-24T23:08:18.018Z,102958.62
2018-12-24T23:10:47.348Z,102956.76
2018-12-24T23:13:16.690Z,102963.14
2018-12-24T23:15:46.019Z,102963.33
2018-12-24T23:18:15.322Z,102965.87
2018-12-24T23:20:44.898Z,102959.77
2018-12-24T23:23:14.228Z,102955.54
2018-12-24T23:25:43.541Z,102951.07
2018-12-24T23:28:12.944Z,102958.12
2018-12-24T23:30:42.251Z,102949.77
2018-12-24T23:33:11.961Z,102950.83
2018-12-24T23:35:41.279Z,102951.57
2018-12-24T23:38:10.820Z,102951.51
2018-12-24T23:40:40.128Z,102946.36
2018-12-24T23:43:09.713Z,102949.72
2018-12-24T23:45:39.056Z,102954.84
2018-12-24T23:48:08.403Z,102948.85
2018-12-24T23:50:37.757Z,102951.87
2018-12-24T23:53:07.098Z,102956.54
2018-12-24T23:55:36.434Z,102954.08
2018-12-24T23:58:06.009Z,102957.67
